Hanjin Valencia — 3FSR7 — position and weather

sailwx.info

Track history (hours):
 
Tides and Currents Weather Stations Pressure Air Temp Water Temp Dewpoint Dewpoint Depression Visibility Wind Speed Wind Dir Waves Ship Positions

Hanjin Valencia

Last reported at 2017-May-30 03:26 UTC. Time now 2017-May-30 05:30 UTC.
Position N 29°45' W 095°10'.

Length 183 m; draft 11.2 m.

Type: Tanker. MMSI: 374057000.

Date/timePositionNaut miles runAvg speedWind from/ knotsBaromVisibWave heightAir tempDewpointWater temp
2017-May-30 03:26N 29°45' W 095°10'0 1.0
2017-May-30 03:00N 29°45' W 095°10'2 4.5
2017-May-30 02:30N 29°44' W 095°12'1 0.1
2017-May-29 16:07N 29°43' W 095°14'0 0.1
2017-May-29 16:00N 29°43' W 095°14'0 0.2
2017-May-29 15:30N 29°43' W 095°14'2 4.1
2017-May-29 15:00N 29°44' W 095°12'3 5.3
2017-May-29 14:30N 29°44' W 095°09'5 5.5
2017-May-29 13:30N 29°44' W 095°03'4 7.6
2017-May-29 13:00N 29°41' W 094°59'510.7
2017-May-29 12:30N 29°36' W 094°57'510.8
2017-May-29 12:00N 29°32' W 094°54'611.4
2017-May-29 11:30N 29°27' W 094°51'612.8
2017-May-29 11:00N 29°21' W 094°47'  
2017-May-24 04:25N 25°19' W 079°29'512.4
2017-May-24 04:01N 25°24' W 079°29'612.3
2017-May-24 03:30N 25°31' W 079°29'612.2
2017-May-24 03:00N 25°37' W 079°29'612.3
2017-May-24 02:30N 25°43' W 079°29'612.3
2017-May-24 02:00N 25°49' W 079°29'812.4
2017-May-24 01:20N 25°57' W 079°29'512.4
2017-May-24 00:56N 26°02' W 079°29'511.3
2017-May-24 00:28N 26°07' W 079°26'1513.3
2017-May-23 23:20N 26°14' W 079°11'513.4
2017-May-23 22:59N 26°16' W 079°06'  
Track history (hours):
 
Tides and Currents Weather Stations Pressure Air Temp Water Temp Dewpoint Dewpoint Depression Visibility Wind Speed Wind Dir Waves Ship Positions

Hanjin Valencia

Last reported at 2017-May-30 03:26 UTC. Time now 2017-May-30 05:30 UTC.
Position N 29°45' W 095°10'.

Length 183 m; draft 11.2 m.

Type: Tanker. MMSI: 374057000.

Date/timePositionNaut miles runAvg speedWind from/ knotsBaromVisibWave heightAir tempDewpointWater temp
2017-May-30 03:26N 29°45' W 095°10'0 1.0
2017-May-30 03:00N 29°45' W 095°10'2 4.5
2017-May-30 02:30N 29°44' W 095°12'1 0.1
2017-May-29 16:07N 29°43' W 095°14'0 0.1
2017-May-29 16:00N 29°43' W 095°14'0 0.2
2017-May-29 15:30N 29°43' W 095°14'2 4.1
2017-May-29 15:00N 29°44' W 095°12'3 5.3
2017-May-29 14:30N 29°44' W 095°09'5 5.5
2017-May-29 13:30N 29°44' W 095°03'4 7.6
2017-May-29 13:00N 29°41' W 094°59'510.7
2017-May-29 12:30N 29°36' W 094°57'510.8
2017-May-29 12:00N 29°32' W 094°54'611.4
2017-May-29 11:30N 29°27' W 094°51'612.8
2017-May-29 11:00N 29°21' W 094°47'  
2017-May-24 04:25N 25°19' W 079°29'512.4
2017-May-24 04:01N 25°24' W 079°29'612.3
2017-May-24 03:30N 25°31' W 079°29'612.2
2017-May-24 03:00N 25°37' W 079°29'612.3
2017-May-24 02:30N 25°43' W 079°29'612.3
2017-May-24 02:00N 25°49' W 079°29'812.4
2017-May-24 01:20N 25°57' W 079°29'512.4
2017-May-24 00:56N 26°02' W 079°29'511.3
2017-May-24 00:28N 26°07' W 079°26'1513.3
2017-May-23 23:20N 26°14' W 079°11'513.4
2017-May-23 22:59N 26°16' W 079°06'  

Dump ship's entire track history